Terminal Aerodrome Forecast
Issued by NWS Springfield, MO

Home | Current Version | Previous Version | Text Only | Print | Product List | Glossary On
Versions: 1 2 3 4 5 6 7 8 9 10 11 12 13 14 15 16 17 18 19 20 21 22 23 24 25 26 27 28 29 30 31 32 33
000
FTUS43 KSGF 240520
TAFSGF
TAF
KSGF 240520Z 2406/2506 13012KT P6SM -RA OVC090
     FM240900 13008KT 2SM SHRA OVC008
     FM241500 15007KT P6SM VCSH OVC005
     FM241800 17008KT 2SM SHRA VCTS OVC008CB
     FM242100 18010G20KT 4SM SHRA OVC005
     FM250000 25014G25KT P6SM BKN008
     FM250200 26014G25KT P6SM SCT020 SCT150=

USA.gov is the U.S. government's official web portal to all federal, state and local government web resources and services.